sensor_id;sensor_type;location;lat;lon;timestamp;P1;durP1;ratioP1;P2;durP2;ratioP2
51266;SDS011;37338;47.426;19.204;2023-05-10T00:00:11;3.87;;;2.30;;
51266;SDS011;37338;47.426;19.204;2023-05-10T00:02:37;4.10;;;2.00;;
51266;SDS011;37338;47.426;19.204;2023-05-10T00:05:02;5.20;;;2.03;;
51266;SDS011;37338;47.426;19.204;2023-05-10T00:07:28;2.90;;;2.23;;
51266;SDS011;37338;47.426;19.204;2023-05-10T00:09:53;2.37;;;1.40;;
51266;SDS011;37338;47.426;19.204;2023-05-10T00:12:19;4.00;;;2.10;;
51266;SDS011;37338;47.426;19.204;2023-05-10T00:14:44;2.70;;;1.97;;
51266;SDS011;37338;47.426;19.204;2023-05-10T00:17:10;1.90;;;1.70;;
51266;SDS011;37338;47.426;19.204;2023-05-10T00:19:35;2.00;;;1.80;;
51266;SDS011;37338;47.426;19.204;2023-05-10T00:22:00;2.73;;;1.97;;
51266;SDS011;37338;47.426;19.204;2023-05-10T00:24:26;3.60;;;2.00;;
51266;SDS011;37338;47.426;19.204;2023-05-10T00:26:51;3.57;;;1.70;;
51266;SDS011;37338;47.426;19.204;2023-05-10T00:29:17;10.20;;;2.47;;
51266;SDS011;37338;47.426;19.204;2023-05-10T00:31:42;2.40;;;2.07;;
51266;SDS011;37338;47.426;19.204;2023-05-10T00:34:08;6.00;;;2.40;;
51266;SDS011;37338;47.426;19.204;2023-05-10T00:36:33;3.30;;;2.30;;
51266;SDS011;37338;47.426;19.204;2023-05-10T00:38:58;5.23;;;1.93;;
51266;SDS011;37338;47.426;19.204;2023-05-10T00:41:24;2.63;;;2.10;;
51266;SDS011;37338;47.426;19.204;2023-05-10T00:43:49;4.20;;;2.37;;
51266;SDS011;37338;47.426;19.204;2023-05-10T00:46:15;5.23;;;1.80;;
51266;SDS011;37338;47.426;19.204;2023-05-10T00:48:40;5.23;;;2.37;;
51266;SDS011;37338;47.426;19.204;2023-05-10T00:51:06;1.70;;;1.53;;
51266;SDS011;37338;47.426;19.204;2023-05-10T00:53:32;3.53;;;2.00;;
51266;SDS011;37338;47.426;19.204;2023-05-10T00:55:58;2.43;;;2.03;;
51266;SDS011;37338;47.426;19.204;2023-05-10T00:58:24;4.07;;;1.93;;
51266;SDS011;37338;47.426;19.204;2023-05-10T01:00:53;2.77;;;2.30;;
51266;SDS011;37338;47.426;19.204;2023-05-10T01:03:20;3.43;;;2.60;;
51266;SDS011;37338;47.426;19.204;2023-05-10T01:05:45;3.77;;;2.33;;
51266;SDS011;37338;47.426;19.204;2023-05-10T01:08:11;7.63;;;2.73;;
51266;SDS011;37338;47.426;19.204;2023-05-10T01:10:36;4.17;;;2.00;;
51266;SDS011;37338;47.426;19.204;2023-05-10T01:13:02;4.07;;;2.00;;
51266;SDS011;37338;47.426;19.204;2023-05-10T01:15:28;6.17;;;2.37;;
51266;SDS011;37338;47.426;19.204;2023-05-10T01:17:54;4.60;;;2.20;;
51266;SDS011;37338;47.426;19.204;2023-05-10T01:20:19;2.30;;;1.97;;
51266;SDS011;37338;47.426;19.204;2023-05-10T01:22:50;3.60;;;2.10;;
51266;SDS011;37338;47.426;19.204;2023-05-10T01:36:50;3.50;;;2.70;;
51266;SDS011;37338;47.426;19.204;2023-05-10T01:41:57;5.20;;;2.87;;
51266;SDS011;37338;47.426;19.204;2023-05-10T01:47:30;5.07;;;2.20;;
51266;SDS011;37338;47.426;19.204;2023-05-10T01:50:01;3.40;;;1.97;;
51266;SDS011;37338;47.426;19.204;2023-05-10T01:52:36;3.13;;;2.10;;
51266;SDS011;37338;47.426;19.204;2023-05-10T01:55:05;4.17;;;2.27;;
51266;SDS011;37338;47.426;19.204;2023-05-10T01:57:32;2.70;;;2.27;;
51266;SDS011;37338;47.426;19.204;2023-05-10T01:59:59;2.87;;;2.10;;
51266;SDS011;37338;47.426;19.204;2023-05-10T02:02:27;4.80;;;2.20;;
51266;SDS011;37338;47.426;19.204;2023-05-10T02:04:55;4.13;;;2.10;;
51266;SDS011;37338;47.426;19.204;2023-05-10T02:07:22;6.03;;;2.60;;
51266;SDS011;37338;47.426;19.204;2023-05-10T02:09:48;4.73;;;2.27;;
51266;SDS011;37338;47.426;19.204;2023-05-10T02:12:13;3.40;;;2.00;;
51266;SDS011;37338;47.426;19.204;2023-05-10T02:14:40;2.67;;;2.03;;
51266;SDS011;37338;47.426;19.204;2023-05-10T02:17:06;3.47;;;2.27;;
51266;SDS011;37338;47.426;19.204;2023-05-10T02:19:32;2.23;;;1.97;;
51266;SDS011;37338;47.426;19.204;2023-05-10T02:21:59;4.07;;;2.73;;
51266;SDS011;37338;47.426;19.204;2023-05-10T02:24:26;3.27;;;2.30;;
51266;SDS011;37338;47.426;19.204;2023-05-10T02:26:53;6.63;;;2.40;;
51266;SDS011;37338;47.426;19.204;2023-05-10T02:29:20;2.83;;;2.27;;
51266;SDS011;37338;47.426;19.204;2023-05-10T02:31:48;2.63;;;2.43;;
51266;SDS011;37338;47.426;19.204;2023-05-10T02:34:15;3.17;;;2.23;;
51266;SDS011;37338;47.426;19.204;2023-05-10T02:36:41;4.90;;;2.50;;
51266;SDS011;37338;47.426;19.204;2023-05-10T02:39:07;3.33;;;2.50;;
51266;SDS011;37338;47.426;19.204;2023-05-10T02:41:37;5.83;;;2.13;;
51266;SDS011;37338;47.426;19.204;2023-05-10T02:44:06;2.67;;;2.23;;
51266;SDS011;37338;47.426;19.204;2023-05-10T02:46:33;3.03;;;2.50;;
51266;SDS011;37338;47.426;19.204;2023-05-10T02:48:58;3.80;;;2.70;;
51266;SDS011;37338;47.426;19.204;2023-05-10T02:51:24;6.83;;;2.43;;
51266;SDS011;37338;47.426;19.204;2023-05-10T02:53:50;2.37;;;2.10;;
51266;SDS011;37338;47.426;19.204;2023-05-10T02:56:25;3.47;;;1.93;;
51266;SDS011;37338;47.426;19.204;2023-05-10T02:58:57;8.17;;;3.47;;
51266;SDS011;37338;47.426;19.204;2023-05-10T03:01:22;5.97;;;2.70;;
51266;SDS011;37338;47.426;19.204;2023-05-10T03:03:48;5.67;;;2.20;;
51266;SDS011;37338;47.426;19.204;2023-05-10T03:06:14;3.07;;;2.50;;
51266;SDS011;37338;47.426;19.204;2023-05-10T03:08:39;2.40;;;2.20;;
51266;SDS011;37338;47.426;19.204;2023-05-10T03:11:12;4.77;;;2.63;;
51266;SDS011;37338;47.426;19.204;2023-05-10T03:13:54;4.43;;;2.40;;
51266;SDS011;37338;47.426;19.204;2023-05-10T03:16:34;4.67;;;2.53;;
51266;SDS011;37338;47.426;19.204;2023-05-10T03:19:06;10.45;;;2.70;;
51266;SDS011;37338;47.426;19.204;2023-05-10T03:21:35;3.50;;;2.70;;
51266;SDS011;37338;47.426;19.204;2023-05-10T03:24:05;7.20;;;2.93;;
51266;SDS011;37338;47.426;19.204;2023-05-10T03:26:32;4.27;;;2.97;;
51266;SDS011;37338;47.426;19.204;2023-05-10T03:28:58;7.43;;;2.87;;
51266;SDS011;37338;47.426;19.204;2023-05-10T03:31:24;9.47;;;2.87;;
51266;SDS011;37338;47.426;19.204;2023-05-10T03:33:50;4.27;;;3.03;;
51266;SDS011;37338;47.426;19.204;2023-05-10T03:36:16;2.43;;;2.23;;
51266;SDS011;37338;47.426;19.204;2023-05-10T03:38:41;2.47;;;2.27;;
51266;SDS011;37338;47.426;19.204;2023-05-10T03:41:07;5.67;;;2.97;;
51266;SDS011;37338;47.426;19.204;2023-05-10T03:43:32;5.73;;;2.30;;
51266;SDS011;37338;47.426;19.204;2023-05-10T03:45:58;6.87;;;3.17;;
51266;SDS011;37338;47.426;19.204;2023-05-10T03:48:23;5.20;;;2.50;;
51266;SDS011;37338;47.426;19.204;2023-05-10T03:50:48;3.50;;;2.70;;
51266;SDS011;37338;47.426;19.204;2023-05-10T03:53:14;4.10;;;2.60;;
51266;SDS011;37338;47.426;19.204;2023-05-10T03:55:40;7.30;;;3.80;;
51266;SDS011;37338;47.426;19.204;2023-05-10T03:58:05;4.77;;;2.83;;
51266;SDS011;37338;47.426;19.204;2023-05-10T04:00:31;4.50;;;3.30;;
51266;SDS011;37338;47.426;19.204;2023-05-10T04:02:57;3.87;;;3.13;;
51266;SDS011;37338;47.426;19.204;2023-05-10T04:05:22;9.77;;;3.30;;
51266;SDS011;37338;47.426;19.204;2023-05-10T04:07:48;4.60;;;2.77;;
51266;SDS011;37338;47.426;19.204;2023-05-10T04:10:14;4.80;;;3.30;;
51266;SDS011;37338;47.426;19.204;2023-05-10T04:12:41;4.63;;;2.97;;
51266;SDS011;37338;47.426;19.204;2023-05-10T04:15:06;5.27;;;3.70;;
51266;SDS011;37338;47.426;19.204;2023-05-10T04:17:32;16.67;;;3.60;;
51266;SDS011;37338;47.426;19.204;2023-05-10T04:19:58;8.83;;;3.90;;
51266;SDS011;37338;47.426;19.204;2023-05-10T04:22:23;8.13;;;3.10;;
51266;SDS011;37338;47.426;19.204;2023-05-10T04:24:48;11.53;;;3.30;;
51266;SDS011;37338;47.426;19.204;2023-05-10T04:27:14;9.43;;;3.30;;
51266;SDS011;37338;47.426;19.204;2023-05-10T04:29:39;4.43;;;3.33;;
51266;SDS011;37338;47.426;19.204;2023-05-10T04:32:04;3.83;;;3.27;;
51266;SDS011;37338;47.426;19.204;2023-05-10T04:34:30;6.63;;;3.27;;
51266;SDS011;37338;47.426;19.204;2023-05-10T04:36:55;3.40;;;3.10;;
51266;SDS011;37338;47.426;19.204;2023-05-10T04:39:20;8.23;;;3.23;;
51266;SDS011;37338;47.426;19.204;2023-05-10T04:41:46;4.43;;;3.20;;
51266;SDS011;37338;47.426;19.204;2023-05-10T04:44:11;3.37;;;2.93;;
51266;SDS011;37338;47.426;19.204;2023-05-10T04:46:37;6.43;;;3.63;;
51266;SDS011;37338;47.426;19.204;2023-05-10T04:49:02;8.33;;;3.77;;
51266;SDS011;37338;47.426;19.204;2023-05-10T04:51:27;8.17;;;3.40;;
51266;SDS011;37338;47.426;19.204;2023-05-10T04:53:53;9.47;;;3.33;;
51266;SDS011;37338;47.426;19.204;2023-05-10T04:56:19;8.37;;;4.67;;
51266;SDS011;37338;47.426;19.204;2023-05-10T04:58:45;13.03;;;7.63;;
51266;SDS011;37338;47.426;19.204;2023-05-10T05:01:10;18.40;;;3.63;;
51266;SDS011;37338;47.426;19.204;2023-05-10T05:03:36;5.40;;;3.37;;
51266;SDS011;37338;47.426;19.204;2023-05-10T05:06:02;17.93;;;4.67;;
51266;SDS011;37338;47.426;19.204;2023-05-10T05:08:27;7.57;;;3.20;;
51266;SDS011;37338;47.426;19.204;2023-05-10T05:10:53;5.53;;;2.90;;
51266;SDS011;37338;47.426;19.204;2023-05-10T05:13:19;6.70;;;3.57;;
51266;SDS011;37338;47.426;19.204;2023-05-10T05:15:44;6.65;;;3.00;;
51266;SDS011;37338;47.426;19.204;2023-05-10T05:18:10;7.18;;;3.70;;
51266;SDS011;37338;47.426;19.204;2023-05-10T05:20:35;3.88;;;3.58;;
51266;SDS011;37338;47.426;19.204;2023-05-10T05:23:01;9.90;;;3.42;;
51266;SDS011;37338;47.426;19.204;2023-05-10T05:25:26;12.38;;;3.45;;
51266;SDS011;37338;47.426;19.204;2023-05-10T05:27:52;10.18;;;4.10;;
51266;SDS011;37338;47.426;19.204;2023-05-10T05:30:17;7.55;;;4.20;;
51266;SDS011;37338;47.426;19.204;2023-05-10T05:32:42;10.20;;;4.25;;
51266;SDS011;37338;47.426;19.204;2023-05-10T05:35:08;27.65;;;5.90;;
51266;SDS011;37338;47.426;19.204;2023-05-10T05:37:33;4.35;;;3.85;;
51266;SDS011;37338;47.426;19.204;2023-05-10T05:39:59;5.05;;;3.40;;
51266;SDS011;37338;47.426;19.204;2023-05-10T05:42:26;10.40;;;3.25;;
51266;SDS011;37338;47.426;19.204;2023-05-10T05:44:52;36.45;;;6.57;;
51266;SDS011;37338;47.426;19.204;2023-05-10T05:47:17;5.07;;;3.92;;
51266;SDS011;37338;47.426;19.204;2023-05-10T05:49:42;5.25;;;3.72;;
51266;SDS011;37338;47.426;19.204;2023-05-10T05:52:10;5.80;;;3.70;;
51266;SDS011;37338;47.426;19.204;2023-05-10T05:54:36;4.30;;;3.42;;
51266;SDS011;37338;47.426;19.204;2023-05-10T05:57:01;9.43;;;3.92;;
51266;SDS011;37338;47.426;19.204;2023-05-10T05:59:27;28.23;;;8.20;;
51266;SDS011;37338;47.426;19.204;2023-05-10T06:01:52;3.63;;;3.28;;
51266;SDS011;37338;47.426;19.204;2023-05-10T06:04:18;10.52;;;4.50;;
51266;SDS011;37338;47.426;19.204;2023-05-10T06:06:44;7.68;;;4.13;;
51266;SDS011;37338;47.426;19.204;2023-05-10T06:09:10;6.10;;;3.38;;
51266;SDS011;37338;47.426;19.204;2023-05-10T06:11:36;7.50;;;3.75;;
51266;SDS011;37338;47.426;19.204;2023-05-10T06:14:01;7.15;;;3.90;;
51266;SDS011;37338;47.426;19.204;2023-05-10T06:16:29;10.95;;;3.85;;
51266;SDS011;37338;47.426;19.204;2023-05-10T06:18:55;7.65;;;3.05;;
51266;SDS011;37338;47.426;19.204;2023-05-10T06:21:20;9.70;;;3.63;;
51266;SDS011;37338;47.426;19.204;2023-05-10T06:23:46;8.68;;;4.20;;
51266;SDS011;37338;47.426;19.204;2023-05-10T06:26:11;18.33;;;4.68;;
51266;SDS011;37338;47.426;19.204;2023-05-10T06:28:37;5.20;;;3.90;;
51266;SDS011;37338;47.426;19.204;2023-05-10T06:31:05;7.60;;;3.85;;
51266;SDS011;37338;47.426;19.204;2023-05-10T06:33:31;4.80;;;4.40;;
51266;SDS011;37338;47.426;19.204;2023-05-10T06:35:57;11.80;;;3.35;;
51266;SDS011;37338;47.426;19.204;2023-05-10T06:38:23;8.30;;;3.85;;
51266;SDS011;37338;47.426;19.204;2023-05-10T06:40:48;12.65;;;4.20;;
51266;SDS011;37338;47.426;19.204;2023-05-10T06:43:14;7.07;;;3.78;;
51266;SDS011;37338;47.426;19.204;2023-05-10T06:45:39;6.25;;;4.55;;
51266;SDS011;37338;47.426;19.204;2023-05-10T06:48:05;7.25;;;4.35;;
51266;SDS011;37338;47.426;19.204;2023-05-10T06:50:31;5.13;;;4.57;;
51266;SDS011;37338;47.426;19.204;2023-05-10T06:52:57;5.43;;;3.63;;
51266;SDS011;37338;47.426;19.204;2023-05-10T06:55:22;3.80;;;3.40;;
51266;SDS011;37338;47.426;19.204;2023-05-10T06:57:48;28.70;;;5.18;;
51266;SDS011;37338;47.426;19.204;2023-05-10T07:00:14;14.32;;;3.53;;
51266;SDS011;37338;47.426;19.204;2023-05-10T07:02:39;4.13;;;3.28;;
51266;SDS011;37338;47.426;19.204;2023-05-10T07:05:05;24.30;;;6.13;;
51266;SDS011;37338;47.426;19.204;2023-05-10T07:07:31;8.35;;;3.15;;
51266;SDS011;37338;47.426;19.204;2023-05-10T07:09:56;5.28;;;2.65;;
51266;SDS011;37338;47.426;19.204;2023-05-10T07:12:22;2.92;;;2.47;;
51266;SDS011;37338;47.426;19.204;2023-05-10T07:14:48;4.65;;;3.30;;
51266;SDS011;37338;47.426;19.204;2023-05-10T07:17:13;2.92;;;2.28;;
51266;SDS011;37338;47.426;19.204;2023-05-10T07:19:39;12.30;;;2.53;;
51266;SDS011;37338;47.426;19.204;2023-05-10T07:22:04;4.32;;;2.67;;
51266;SDS011;37338;47.426;19.204;2023-05-10T07:24:30;4.75;;;2.80;;
51266;SDS011;37338;47.426;19.204;2023-05-10T07:26:56;4.95;;;2.22;;
51266;SDS011;37338;47.426;19.204;2023-05-10T07:29:21;2.60;;;2.40;;
51266;SDS011;37338;47.426;19.204;2023-05-10T07:31:47;7.15;;;3.00;;
51266;SDS011;37338;47.426;19.204;2023-05-10T07:34:12;3.28;;;2.70;;
51266;SDS011;37338;47.426;19.204;2023-05-10T07:36:37;2.40;;;2.20;;
51266;SDS011;37338;47.426;19.204;2023-05-10T07:39:03;2.78;;;2.58;;
51266;SDS011;37338;47.426;19.204;2023-05-10T07:41:28;16.08;;;2.58;;
51266;SDS011;37338;47.426;19.204;2023-05-10T07:43:54;5.65;;;2.47;;
51266;SDS011;37338;47.426;19.204;2023-05-10T07:46:19;4.85;;;3.00;;
51266;SDS011;37338;47.426;19.204;2023-05-10T07:48:45;19.33;;;3.55;;
51266;SDS011;37338;47.426;19.204;2023-05-10T07:51:10;3.92;;;2.80;;
51266;SDS011;37338;47.426;19.204;2023-05-10T07:53:36;17.52;;;3.60;;
51266;SDS011;37338;47.426;19.204;2023-05-10T07:56:20;3.17;;;2.65;;
51266;SDS011;37338;47.426;19.204;2023-05-10T07:58:54;9.48;;;2.85;;
51266;SDS011;37338;47.426;19.204;2023-05-10T08:01:29;4.45;;;2.53;;
51266;SDS011;37338;47.426;19.204;2023-05-10T08:03:56;3.10;;;2.80;;
51266;SDS011;37338;47.426;19.204;2023-05-10T08:06:21;3.15;;;2.45;;
51266;SDS011;37338;47.426;19.204;2023-05-10T08:08:47;3.80;;;2.72;;
51266;SDS011;37338;47.426;19.204;2023-05-10T08:11:18;7.15;;;2.75;;
51266;SDS011;37338;47.426;19.204;2023-05-10T08:13:46;3.03;;;2.75;;
51266;SDS011;37338;47.426;19.204;2023-05-10T08:16:12;7.57;;;2.63;;
51266;SDS011;37338;47.426;19.204;2023-05-10T08:18:38;5.25;;;2.95;;
51266;SDS011;37338;47.426;19.204;2023-05-10T08:21:04;3.90;;;2.42;;
51266;SDS011;37338;47.426;19.204;2023-05-10T08:23:29;2.25;;;2.05;;
51266;SDS011;37338;47.426;19.204;2023-05-10T08:25:55;3.00;;;2.05;;
51266;SDS011;37338;47.426;19.204;2023-05-10T08:28:20;2.28;;;2.15;;
51266;SDS011;37338;47.426;19.204;2023-05-10T08:30:45;4.32;;;2.55;;
51266;SDS011;37338;47.426;19.204;2023-05-10T08:33:11;4.43;;;2.80;;
51266;SDS011;37338;47.426;19.204;2023-05-10T08:35:36;7.15;;;2.63;;
51266;SDS011;37338;47.426;19.204;2023-05-10T08:38:02;6.95;;;2.83;;
51266;SDS011;37338;47.426;19.204;2023-05-10T08:40:27;7.28;;;2.65;;
51266;SDS011;37338;47.426;19.204;2023-05-10T08:43:13;4.72;;;2.75;;
51266;SDS011;37338;47.426;19.204;2023-05-10T08:45:40;4.43;;;2.85;;
51266;SDS011;37338;47.426;19.204;2023-05-10T08:48:07;3.85;;;2.70;;
51266;SDS011;37338;47.426;19.204;2023-05-10T08:50:38;11.60;;;4.10;;
51266;SDS011;37338;47.426;19.204;2023-05-10T08:53:05;9.63;;;3.15;;
51266;SDS011;37338;47.426;19.204;2023-05-10T08:55:32;26.35;;;4.07;;
51266;SDS011;37338;47.426;19.204;2023-05-10T08:58:03;7.13;;;2.72;;
51266;SDS011;37338;47.426;19.204;2023-05-10T09:00:29;8.38;;;2.60;;
51266;SDS011;37338;47.426;19.204;2023-05-10T09:02:55;3.00;;;2.70;;
51266;SDS011;37338;47.426;19.204;2023-05-10T09:05:20;9.73;;;3.05;;
51266;SDS011;37338;47.426;19.204;2023-05-10T09:07:46;8.65;;;2.92;;
51266;SDS011;37338;47.426;19.204;2023-05-10T09:10:11;3.00;;;2.70;;
51266;SDS011;37338;47.426;19.204;2023-05-10T09:12:38;2.70;;;2.50;;
51266;SDS011;37338;47.426;19.204;2023-05-10T09:15:04;3.10;;;2.60;;
51266;SDS011;37338;47.426;19.204;2023-05-10T09:17:31;2.70;;;2.15;;
51266;SDS011;37338;47.426;19.204;2023-05-10T09:20:00;5.05;;;2.22;;
51266;SDS011;37338;47.426;19.204;2023-05-10T09:22:27;4.38;;;2.00;;
51266;SDS011;37338;47.426;19.204;2023-05-10T09:25:13;5.28;;;2.40;;
51266;SDS011;37338;47.426;19.204;2023-05-10T09:27:40;6.60;;;2.53;;
51266;SDS011;37338;47.426;19.204;2023-05-10T09:30:06;4.50;;;2.05;;
51266;SDS011;37338;47.426;19.204;2023-05-10T09:32:39;3.22;;;1.95;;
51266;SDS011;37338;47.426;19.204;2023-05-10T09:35:09;2.78;;;2.55;;
51266;SDS011;37338;47.426;19.204;2023-05-10T09:37:39;4.20;;;2.22;;
51266;SDS011;37338;47.426;19.204;2023-05-10T09:40:10;8.52;;;3.35;;
51266;SDS011;37338;47.426;19.204;2023-05-10T09:42:37;4.28;;;1.92;;
51266;SDS011;37338;47.426;19.204;2023-05-10T09:45:06;2.58;;;2.10;;
51266;SDS011;37338;47.426;19.204;2023-05-10T09:47:32;3.55;;;2.25;;
51266;SDS011;37338;47.426;19.204;2023-05-10T09:49:59;2.55;;;2.20;;
51266;SDS011;37338;47.426;19.204;2023-05-10T09:52:28;3.20;;;2.13;;
51266;SDS011;37338;47.426;19.204;2023-05-10T09:54:55;2.35;;;2.15;;
51266;SDS011;37338;47.426;19.204;2023-05-10T09:57:21;5.30;;;2.20;;
51266;SDS011;37338;47.426;19.204;2023-05-10T09:59:47;4.93;;;2.20;;
51266;SDS011;37338;47.426;19.204;2023-05-10T10:02:13;2.15;;;1.67;;
51266;SDS011;37338;47.426;19.204;2023-05-10T10:04:39;3.35;;;2.25;;
51266;SDS011;37338;47.426;19.204;2023-05-10T10:07:05;5.75;;;1.30;;
51266;SDS011;37338;47.426;19.204;2023-05-10T10:09:31;5.47;;;2.03;;
51266;SDS011;37338;47.426;19.204;2023-05-10T10:11:58;1.77;;;1.67;;
51266;SDS011;37338;47.426;19.204;2023-05-10T10:14:25;5.88;;;1.60;;
51266;SDS011;37338;47.426;19.204;2023-05-10T10:16:50;4.55;;;2.42;;
51266;SDS011;37338;47.426;19.204;2023-05-10T10:19:16;2.53;;;1.65;;
51266;SDS011;37338;47.426;19.204;2023-05-10T10:21:43;3.53;;;1.58;;
51266;SDS011;37338;47.426;19.204;2023-05-10T10:24:09;2.20;;;1.63;;
51266;SDS011;37338;47.426;19.204;2023-05-10T10:26:34;20.55;;;3.03;;
51266;SDS011;37338;47.426;19.204;2023-05-10T10:29:21;1.77;;;1.50;;
51266;SDS011;37338;47.426;19.204;2023-05-10T10:34:38;2.60;;;1.52;;
51266;SDS011;37338;47.426;19.204;2023-05-10T10:37:04;2.65;;;1.50;;
51266;SDS011;37338;47.426;19.204;2023-05-10T10:39:30;2.42;;;1.55;;
51266;SDS011;37338;47.426;19.204;2023-05-10T10:41:56;2.95;;;1.80;;
51266;SDS011;37338;47.426;19.204;2023-05-10T10:49:33;3.60;;;1.47;;
51266;SDS011;37338;47.426;19.204;2023-05-10T10:54:58;5.97;;;1.38;;
51266;SDS011;37338;47.426;19.204;2023-05-10T10:57:25;9.90;;;1.70;;
51266;SDS011;37338;47.426;19.204;2023-05-10T10:59:51;7.47;;;1.30;;
51266;SDS011;37338;47.426;19.204;2023-05-10T11:07:55;6.97;;;1.52;;
51266;SDS011;37338;47.426;19.204;2023-05-10T11:10:21;4.95;;;1.40;;
51266;SDS011;37338;47.426;19.204;2023-05-10T11:13:06;4.00;;;2.10;;
51266;SDS011;37338;47.426;19.204;2023-05-10T11:15:36;1.98;;;1.75;;
51266;SDS011;37338;47.426;19.204;2023-05-10T11:18:19;2.72;;;1.58;;
51266;SDS011;37338;47.426;19.204;2023-05-10T11:20:49;2.55;;;1.33;;
51266;SDS011;37338;47.426;19.204;2023-05-10T11:23:21;5.05;;;2.00;;
51266;SDS011;37338;47.426;19.204;2023-05-10T11:25:47;2.05;;;1.70;;
51266;SDS011;37338;47.426;19.204;2023-05-10T11:28:14;2.22;;;1.20;;
51266;SDS011;37338;47.426;19.204;2023-05-10T11:30:39;5.65;;;1.60;;
51266;SDS011;37338;47.426;19.204;2023-05-10T11:33:06;3.17;;;1.83;;
51266;SDS011;37338;47.426;19.204;2023-05-10T11:35:39;1.70;;;1.60;;
51266;SDS011;37338;47.426;19.204;2023-05-10T11:38:06;4.95;;;2.17;;
51266;SDS011;37338;47.426;19.204;2023-05-10T11:40:32;1.60;;;1.13;;
51266;SDS011;37338;47.426;19.204;2023-05-10T11:42:57;2.30;;;1.23;;
51266;SDS011;37338;47.426;19.204;2023-05-10T11:45:23;8.80;;;1.35;;
51266;SDS011;37338;47.426;19.204;2023-05-10T11:47:49;3.58;;;1.80;;
51266;SDS011;37338;47.426;19.204;2023-05-10T11:50:15;6.38;;;1.65;;
51266;SDS011;37338;47.426;19.204;2023-05-10T11:52:40;3.30;;;1.40;;
51266;SDS011;37338;47.426;19.204;2023-05-10T11:55:06;1.65;;;1.27;;
51266;SDS011;37338;47.426;19.204;2023-05-10T11:57:31;2.95;;;1.58;;
51266;SDS011;37338;47.426;19.204;2023-05-10T11:59:57;5.90;;;1.40;;
51266;SDS011;37338;47.426;19.204;2023-05-10T12:02:22;7.00;;;1.27;;
51266;SDS011;37338;47.426;19.204;2023-05-10T12:04:48;3.30;;;1.30;;
51266;SDS011;37338;47.426;19.204;2023-05-10T12:07:14;7.03;;;1.75;;
51266;SDS011;37338;47.426;19.204;2023-05-10T12:12:38;8.70;;;1.77;;
51266;SDS011;37338;47.426;19.204;2023-05-10T12:15:23;9.85;;;1.70;;
51266;SDS011;37338;47.426;19.204;2023-05-10T12:17:49;2.90;;;1.40;;
51266;SDS011;37338;47.426;19.204;2023-05-10T12:20:23;10.13;;;1.40;;
51266;SDS011;37338;47.426;19.204;2023-05-10T12:22:50;4.28;;;1.52;;
51266;SDS011;37338;47.426;19.204;2023-05-10T12:25:16;8.88;;;1.60;;
51266;SDS011;37338;47.426;19.204;2023-05-10T12:27:53;5.47;;;1.13;;
51266;SDS011;37338;47.426;19.204;2023-05-10T12:30:21;15.68;;;1.83;;
51266;SDS011;37338;47.426;19.204;2023-05-10T12:32:53;2.55;;;1.27;;
51266;SDS011;37338;47.426;19.204;2023-05-10T12:35:20;2.60;;;1.10;;
51266;SDS011;37338;47.426;19.204;2023-05-10T12:37:49;4.38;;;1.83;;
51266;SDS011;37338;47.426;19.204;2023-05-10T12:40:15;3.78;;;1.00;;
51266;SDS011;37338;47.426;19.204;2023-05-10T12:42:41;6.03;;;1.33;;
51266;SDS011;37338;47.426;19.204;2023-05-10T12:45:07;5.88;;;1.40;;
51266;SDS011;37338;47.426;19.204;2023-05-10T12:47:33;9.93;;;1.20;;
51266;SDS011;37338;47.426;19.204;2023-05-10T12:49:59;8.55;;;1.35;;
51266;SDS011;37338;47.426;19.204;2023-05-10T12:52:25;7.15;;;0.88;;
51266;SDS011;37338;47.426;19.204;2023-05-10T12:54:51;1.00;;;1.00;;
51266;SDS011;37338;47.426;19.204;2023-05-10T12:57:17;4.97;;;1.10;;
51266;SDS011;37338;47.426;19.204;2023-05-10T12:59:43;7.13;;;1.20;;
51266;SDS011;37338;47.426;19.204;2023-05-10T13:02:08;3.20;;;0.73;;
51266;SDS011;37338;47.426;19.204;2023-05-10T13:04:33;5.43;;;1.10;;
51266;SDS011;37338;47.426;19.204;2023-05-10T13:06:59;13.98;;;1.65;;
51266;SDS011;37338;47.426;19.204;2023-05-10T13:09:25;4.00;;;1.17;;
51266;SDS011;37338;47.426;19.204;2023-05-10T13:11:51;10.52;;;2.38;;
51266;SDS011;37338;47.426;19.204;2023-05-10T13:14:18;3.08;;;1.10;;
51266;SDS011;37338;47.426;19.204;2023-05-10T13:16:45;1.70;;;1.27;;
51266;SDS011;37338;47.426;19.204;2023-05-10T13:19:10;2.17;;;1.20;;
51266;SDS011;37338;47.426;19.204;2023-05-10T13:21:36;3.55;;;1.10;;
51266;SDS011;37338;47.426;19.204;2023-05-10T13:24:01;4.50;;;1.33;;
51266;SDS011;37338;47.426;19.204;2023-05-10T13:26:27;11.13;;;1.40;;
51266;SDS011;37338;47.426;19.204;2023-05-10T13:28:53;6.20;;;0.93;;
51266;SDS011;37338;47.426;19.204;2023-05-10T13:31:20;7.93;;;1.33;;
51266;SDS011;37338;47.426;19.204;2023-05-10T13:33:46;26.88;;;2.70;;
51266;SDS011;37338;47.426;19.204;2023-05-10T13:36:11;8.73;;;1.38;;
51266;SDS011;37338;47.426;19.204;2023-05-10T13:38:36;8.23;;;1.48;;
51266;SDS011;37338;47.426;19.204;2023-05-10T13:41:02;3.05;;;1.27;;
51266;SDS011;37338;47.426;19.204;2023-05-10T13:43:28;8.32;;;1.50;;
51266;SDS011;37338;47.426;19.204;2023-05-10T13:45:54;4.05;;;0.98;;
51266;SDS011;37338;47.426;19.204;2023-05-10T13:48:19;7.38;;;1.60;;
51266;SDS011;37338;47.426;19.204;2023-05-10T13:50:45;2.88;;;1.13;;
51266;SDS011;37338;47.426;19.204;2023-05-10T13:53:11;9.60;;;1.45;;
51266;SDS011;37338;47.426;19.204;2023-05-10T13:55:36;6.85;;;2.40;;
51266;SDS011;37338;47.426;19.204;2023-05-10T13:58:02;7.00;;;1.83;;
51266;SDS011;37338;47.426;19.204;2023-05-10T14:00:27;11.35;;;1.55;;
51266;SDS011;37338;47.426;19.204;2023-05-10T14:02:53;3.03;;;1.55;;
51266;SDS011;37338;47.426;19.204;2023-05-10T14:05:18;9.52;;;1.40;;
51266;SDS011;37338;47.426;19.204;2023-05-10T14:07:44;2.65;;;1.10;;
51266;SDS011;37338;47.426;19.204;2023-05-10T14:10:09;1.50;;;1.40;;
51266;SDS011;37338;47.426;19.204;2023-05-10T14:12:35;7.57;;;1.60;;
51266;SDS011;37338;47.426;19.204;2023-05-10T14:15:00;6.50;;;1.23;;
51266;SDS011;37338;47.426;19.204;2023-05-10T14:17:26;3.08;;;1.02;;
51266;SDS011;37338;47.426;19.204;2023-05-10T14:19:52;2.83;;;1.08;;
51266;SDS011;37338;47.426;19.204;2023-05-10T14:22:17;4.40;;;1.02;;
51266;SDS011;37338;47.426;19.204;2023-05-10T14:24:43;1.55;;;0.80;;
51266;SDS011;37338;47.426;19.204;2023-05-10T14:27:11;4.55;;;1.00;;
51266;SDS011;37338;47.426;19.204;2023-05-10T14:29:37;3.83;;;0.95;;
51266;SDS011;37338;47.426;19.204;2023-05-10T14:32:02;6.47;;;1.10;;
51266;SDS011;37338;47.426;19.204;2023-05-10T14:34:28;2.90;;;1.38;;
51266;SDS011;37338;47.426;19.204;2023-05-10T14:36:53;5.72;;;1.63;;
51266;SDS011;37338;47.426;19.204;2023-05-10T14:39:19;2.13;;;1.00;;
51266;SDS011;37338;47.426;19.204;2023-05-10T14:41:44;3.75;;;1.17;;
51266;SDS011;37338;47.426;19.204;2023-05-10T14:44:10;13.85;;;1.00;;
51266;SDS011;37338;47.426;19.204;2023-05-10T14:46:36;5.53;;;0.93;;
51266;SDS011;37338;47.426;19.204;2023-05-10T14:49:01;2.67;;;1.00;;
51266;SDS011;37338;47.426;19.204;2023-05-10T14:51:27;1.33;;;0.88;;
51266;SDS011;37338;47.426;19.204;2023-05-10T14:53:52;2.38;;;0.98;;
51266;SDS011;37338;47.426;19.204;2023-05-10T14:56:18;1.67;;;0.80;;
51266;SDS011;37338;47.426;19.204;2023-05-10T14:58:43;9.27;;;0.95;;
51266;SDS011;37338;47.426;19.204;2023-05-10T15:01:08;3.72;;;1.40;;
51266;SDS011;37338;47.426;19.204;2023-05-10T15:03:34;9.57;;;1.35;;
51266;SDS011;37338;47.426;19.204;2023-05-10T15:05:59;2.38;;;1.05;;